Woodside, Louisiana
Current Conditions -  °F | °C
As of 3:55 PM on Monday 22 Dec 2014 (Local Time) from KHZR Reporting Station
Broken Clouds Broken Clouds  
Wind Chill: 73°   Ceiling: 3900
Heat Index: 73°   Visibility: 10mi
Dew Point: 62°   Wind: 8mph
Humidity: 68%   Direction: 210°SSW
Pressure: 29.65"   Gusts: NA
Location:  30.6648°N, 91.7944°W
Report Text: KHZR 222155Z AUTO 21007KT 10SM BKN039 BKN045 23/17 A2965 RMK AO2 T02280166
Loading
Personal Weather Stations






























Interactive Weather Map New forecast layout! Learn more

10-Day Weather Forecast

Advertisements
Track Severe Weather on mobile